CheckWX is a tool to help pilots better visualize weather data.  It is not intended as a substitute for an official pre-flight weather briefing.

08:19:06 UTC

KHHG METAR
Huntington Municipal Airport
Huntington, Indiana, USA
Current

24 mins ago

KHHG 220755Z AUTO 00000KT 7SM CLR M03/M04 A3034 RMK AO2 T10301040
Observed
Feb-22 @ 07:55 UTC
Visibility
7 SM
Flight Rules
VFR
Cloud Levels
  • Clear skies
Temperature
-3°C / 27°F
Dewpoint
-4°C / 25°F
Humidity
93%
Altimeter
30.34" Hg
Pressure
1027.42 hPa
Previous

44 mins ago

KHHG 220735Z AUTO 00000KT 7SM CLR M03/M04 A3034 RMK AO2 T10341040
Observed
Feb-22 @ 07:35 UTC
Visibility
7 SM
Flight Rules
VFR
Cloud Levels
  • Clear skies
Temperature
-3°C / 27°F
Dewpoint
-4°C / 25°F
Humidity
93%
Altimeter
30.34" Hg
Pressure
1027.42 hPa
Previous

1 hour ago

KHHG 220715Z AUTO 00000KT 7SM CLR M03/M04 A3033 RMK AO2 T10331043
Observed
Feb-22 @ 07:15 UTC
Visibility
7 SM
Flight Rules
VFR
Cloud Levels
  • Clear skies
Temperature
-3°C / 27°F
Dewpoint
-4°C / 25°F
Humidity
93%
Altimeter
30.33" Hg
Pressure
1027.12 hPa